sensor_id;sensor_type;location;lat;lon;timestamp;P1;durP1;ratioP1;P2;durP2;ratioP2
60704;SDS011;46545;38.014;-7.874;2022-07-11T00:00:10;20.52;;;13.95;;
60704;SDS011;46545;38.014;-7.874;2022-07-11T00:02:11;20.98;;;13.55;;
60704;SDS011;46545;38.014;-7.874;2022-07-11T00:04:12;20.02;;;12.80;;
60704;SDS011;46545;38.014;-7.874;2022-07-11T00:06:12;16.60;;;11.93;;
60704;SDS011;46545;38.014;-7.874;2022-07-11T00:08:13;17.85;;;12.15;;
60704;SDS011;46545;38.014;-7.874;2022-07-11T00:10:13;18.23;;;13.60;;
60704;SDS011;46545;38.014;-7.874;2022-07-11T00:12:14;23.73;;;13.27;;
60704;SDS011;46545;38.014;-7.874;2022-07-11T00:14:15;19.63;;;13.05;;
60704;SDS011;46545;38.014;-7.874;2022-07-11T00:16:16;20.40;;;13.77;;
60704;SDS011;46545;38.014;-7.874;2022-07-11T00:18:17;23.02;;;14.32;;
60704;SDS011;46545;38.014;-7.874;2022-07-11T00:20:17;19.15;;;13.20;;
60704;SDS011;46545;38.014;-7.874;2022-07-11T00:22:18;20.42;;;13.25;;
60704;SDS011;46545;38.014;-7.874;2022-07-11T00:24:18;18.25;;;13.82;;
60704;SDS011;46545;38.014;-7.874;2022-07-11T00:26:20;16.95;;;13.15;;
60704;SDS011;46545;38.014;-7.874;2022-07-11T00:28:20;18.20;;;13.30;;
60704;SDS011;46545;38.014;-7.874;2022-07-11T00:30:21;16.35;;;13.27;;
60704;SDS011;46545;38.014;-7.874;2022-07-11T00:32:21;17.63;;;13.82;;
60704;SDS011;46545;38.014;-7.874;2022-07-11T00:34:22;17.90;;;13.50;;
60704;SDS011;46545;38.014;-7.874;2022-07-11T00:36:22;16.52;;;12.48;;
60704;SDS011;46545;38.014;-7.874;2022-07-11T00:38:23;15.65;;;11.45;;
60704;SDS011;46545;38.014;-7.874;2022-07-11T00:40:23;12.52;;;9.60;;
60704;SDS011;46545;38.014;-7.874;2022-07-11T00:42:24;12.38;;;9.45;;
60704;SDS011;46545;38.014;-7.874;2022-07-11T00:44:24;10.88;;;8.30;;
60704;SDS011;46545;38.014;-7.874;2022-07-11T00:46:25;10.40;;;7.93;;
60704;SDS011;46545;38.014;-7.874;2022-07-11T00:48:26;12.85;;;8.48;;
60704;SDS011;46545;38.014;-7.874;2022-07-11T00:50:27;10.98;;;8.02;;
60704;SDS011;46545;38.014;-7.874;2022-07-11T00:52:27;10.18;;;8.02;;
60704;SDS011;46545;38.014;-7.874;2022-07-11T00:54:28;11.88;;;8.38;;
60704;SDS011;46545;38.014;-7.874;2022-07-11T00:56:30;12.40;;;8.35;;
60704;SDS011;46545;38.014;-7.874;2022-07-11T00:58:31;9.27;;;6.72;;
60704;SDS011;46545;38.014;-7.874;2022-07-11T01:00:31;9.90;;;6.88;;
60704;SDS011;46545;38.014;-7.874;2022-07-11T01:02:32;11.77;;;7.28;;
60704;SDS011;46545;38.014;-7.874;2022-07-11T01:04:32;12.30;;;7.85;;
60704;SDS011;46545;38.014;-7.874;2022-07-11T01:06:33;14.93;;;11.30;;
60704;SDS011;46545;38.014;-7.874;2022-07-11T01:08:34;13.45;;;10.45;;
60704;SDS011;46545;38.014;-7.874;2022-07-11T01:10:35;16.20;;;10.18;;
60704;SDS011;46545;38.014;-7.874;2022-07-11T01:12:36;30.77;;;12.60;;
60704;SDS011;46545;38.014;-7.874;2022-07-11T01:14:36;14.15;;;11.10;;
60704;SDS011;46545;38.014;-7.874;2022-07-11T01:16:37;18.88;;;11.57;;
60704;SDS011;46545;38.014;-7.874;2022-07-11T01:18:38;13.20;;;10.45;;
60704;SDS011;46545;38.014;-7.874;2022-07-11T01:20:38;15.57;;;11.10;;
60704;SDS011;46545;38.014;-7.874;2022-07-11T01:22:40;17.63;;;10.63;;
60704;SDS011;46545;38.014;-7.874;2022-07-11T01:26:43;12.27;;;9.52;;
60704;SDS011;46545;38.014;-7.874;2022-07-11T01:28:44;11.80;;;8.45;;
60704;SDS011;46545;38.014;-7.874;2022-07-11T01:30:45;9.70;;;7.38;;
60704;SDS011;46545;38.014;-7.874;2022-07-11T01:32:45;15.10;;;8.00;;
60704;SDS011;46545;38.014;-7.874;2022-07-11T01:34:46;9.38;;;6.57;;
60704;SDS011;46545;38.014;-7.874;2022-07-11T01:36:46;8.35;;;5.97;;
60704;SDS011;46545;38.014;-7.874;2022-07-11T01:38:47;7.25;;;5.50;;
60704;SDS011;46545;38.014;-7.874;2022-07-11T01:40:47;9.70;;;5.50;;
60704;SDS011;46545;38.014;-7.874;2022-07-11T01:42:48;6.18;;;5.03;;
60704;SDS011;46545;38.014;-7.874;2022-07-11T01:44:48;8.90;;;5.93;;
60704;SDS011;46545;38.014;-7.874;2022-07-11T01:46:48;7.97;;;5.40;;
60704;SDS011;46545;38.014;-7.874;2022-07-11T01:48:49;7.82;;;5.05;;
60704;SDS011;46545;38.014;-7.874;2022-07-11T01:50:50;6.90;;;5.18;;
60704;SDS011;46545;38.014;-7.874;2022-07-11T01:52:50;12.73;;;5.85;;
60704;SDS011;46545;38.014;-7.874;2022-07-11T01:54:51;6.32;;;4.82;;
60704;SDS011;46545;38.014;-7.874;2022-07-11T01:56:51;8.57;;;5.32;;
60704;SDS011;46545;38.014;-7.874;2022-07-11T01:58:52;12.07;;;4.38;;
60704;SDS011;46545;38.014;-7.874;2022-07-11T02:00:52;11.43;;;3.97;;
60704;SDS011;46545;38.014;-7.874;2022-07-11T02:02:53;6.28;;;3.85;;
60704;SDS011;46545;38.014;-7.874;2022-07-11T02:04:53;5.10;;;3.65;;
60704;SDS011;46545;38.014;-7.874;2022-07-11T02:06:54;6.78;;;3.25;;
60704;SDS011;46545;38.014;-7.874;2022-07-11T02:08:54;5.05;;;3.42;;
60704;SDS011;46545;38.014;-7.874;2022-07-11T02:10:55;7.30;;;3.03;;
60704;SDS011;46545;38.014;-7.874;2022-07-11T02:12:56;3.88;;;2.65;;
60704;SDS011;46545;38.014;-7.874;2022-07-11T02:14:58;4.50;;;2.77;;
60704;SDS011;46545;38.014;-7.874;2022-07-11T02:16:59;4.97;;;3.15;;
60704;SDS011;46545;38.014;-7.874;2022-07-11T02:18:59;5.50;;;2.75;;
60704;SDS011;46545;38.014;-7.874;2022-07-11T02:20:59;4.13;;;2.65;;
60704;SDS011;46545;38.014;-7.874;2022-07-11T02:23:00;4.50;;;3.15;;
60704;SDS011;46545;38.014;-7.874;2022-07-11T02:25:01;9.50;;;3.28;;
60704;SDS011;46545;38.014;-7.874;2022-07-11T02:27:02;6.22;;;3.22;;
60704;SDS011;46545;38.014;-7.874;2022-07-11T02:29:03;6.13;;;3.50;;
60704;SDS011;46545;38.014;-7.874;2022-07-11T02:31:03;6.43;;;3.45;;
60704;SDS011;46545;38.014;-7.874;2022-07-11T02:33:04;5.47;;;3.38;;
60704;SDS011;46545;38.014;-7.874;2022-07-11T02:35:05;5.95;;;3.33;;
60704;SDS011;46545;38.014;-7.874;2022-07-11T02:37:05;6.40;;;4.10;;
60704;SDS011;46545;38.014;-7.874;2022-07-11T02:39:06;7.22;;;4.20;;
60704;SDS011;46545;38.014;-7.874;2022-07-11T02:41:07;5.60;;;4.05;;
60704;SDS011;46545;38.014;-7.874;2022-07-11T02:43:07;6.50;;;4.28;;
60704;SDS011;46545;38.014;-7.874;2022-07-11T02:45:08;6.43;;;3.88;;
60704;SDS011;46545;38.014;-7.874;2022-07-11T02:47:09;7.53;;;3.83;;
60704;SDS011;46545;38.014;-7.874;2022-07-11T02:49:09;6.38;;;3.75;;
60704;SDS011;46545;38.014;-7.874;2022-07-11T02:51:09;6.93;;;3.53;;
60704;SDS011;46545;38.014;-7.874;2022-07-11T02:53:10;5.75;;;3.45;;
60704;SDS011;46545;38.014;-7.874;2022-07-11T02:55:11;6.65;;;3.58;;
60704;SDS011;46545;38.014;-7.874;2022-07-11T02:57:12;4.75;;;2.85;;
60704;SDS011;46545;38.014;-7.874;2022-07-11T02:59:13;4.35;;;2.90;;
60704;SDS011;46545;38.014;-7.874;2022-07-11T03:01:13;8.45;;;3.72;;
60704;SDS011;46545;38.014;-7.874;2022-07-11T03:03:14;4.80;;;3.08;;
60704;SDS011;46545;38.014;-7.874;2022-07-11T03:05:14;7.32;;;3.22;;
60704;SDS011;46545;38.014;-7.874;2022-07-11T03:07:15;4.68;;;2.63;;
60704;SDS011;46545;38.014;-7.874;2022-07-11T03:09:16;6.07;;;2.83;;
60704;SDS011;46545;38.014;-7.874;2022-07-11T03:11:17;3.08;;;2.55;;
60704;SDS011;46545;38.014;-7.874;2022-07-11T03:13:19;4.70;;;2.57;;
60704;SDS011;46545;38.014;-7.874;2022-07-11T03:15:20;4.28;;;2.28;;
60704;SDS011;46545;38.014;-7.874;2022-07-11T03:17:21;7.65;;;2.20;;
60704;SDS011;46545;38.014;-7.874;2022-07-11T03:19:21;5.72;;;2.28;;
60704;SDS011;46545;38.014;-7.874;2022-07-11T03:21:22;4.28;;;1.83;;
60704;SDS011;46545;38.014;-7.874;2022-07-11T03:23:23;2.40;;;1.67;;
60704;SDS011;46545;38.014;-7.874;2022-07-11T03:25:23;3.85;;;1.83;;
60704;SDS011;46545;38.014;-7.874;2022-07-11T03:27:24;3.38;;;1.95;;
60704;SDS011;46545;38.014;-7.874;2022-07-11T03:29:25;4.13;;;1.85;;
60704;SDS011;46545;38.014;-7.874;2022-07-11T03:31:25;2.70;;;1.88;;
60704;SDS011;46545;38.014;-7.874;2022-07-11T03:33:26;3.35;;;1.83;;
60704;SDS011;46545;38.014;-7.874;2022-07-11T03:35:27;5.65;;;2.95;;
60704;SDS011;46545;38.014;-7.874;2022-07-11T03:37:42;4.50;;;3.00;;
60704;SDS011;46545;38.014;-7.874;2022-07-11T03:39:43;8.43;;;3.88;;
60704;SDS011;46545;38.014;-7.874;2022-07-11T03:41:43;10.30;;;5.40;;
60704;SDS011;46545;38.014;-7.874;2022-07-11T03:43:44;15.40;;;9.02;;
60704;SDS011;46545;38.014;-7.874;2022-07-11T03:45:45;12.63;;;7.97;;
60704;SDS011;46545;38.014;-7.874;2022-07-11T03:47:46;13.80;;;9.00;;
60704;SDS011;46545;38.014;-7.874;2022-07-11T03:49:48;11.88;;;8.35;;
60704;SDS011;46545;38.014;-7.874;2022-07-11T03:51:49;13.10;;;8.15;;
60704;SDS011;46545;38.014;-7.874;2022-07-11T03:53:52;12.70;;;8.40;;
60704;SDS011;46545;38.014;-7.874;2022-07-11T03:55:52;11.25;;;8.13;;
60704;SDS011;46545;38.014;-7.874;2022-07-11T03:57:53;10.70;;;7.72;;
60704;SDS011;46545;38.014;-7.874;2022-07-11T03:59:53;14.68;;;8.80;;
60704;SDS011;46545;38.014;-7.874;2022-07-11T04:01:54;15.82;;;9.88;;
60704;SDS011;46545;38.014;-7.874;2022-07-11T04:03:54;15.38;;;10.13;;
60704;SDS011;46545;38.014;-7.874;2022-07-11T04:05:55;15.68;;;11.20;;
60704;SDS011;46545;38.014;-7.874;2022-07-11T04:07:55;22.10;;;12.18;;
60704;SDS011;46545;38.014;-7.874;2022-07-11T04:09:56;19.60;;;12.45;;
60704;SDS011;46545;38.014;-7.874;2022-07-11T04:11:56;20.40;;;13.48;;
60704;SDS011;46545;38.014;-7.874;2022-07-11T04:13:57;24.10;;;16.50;;
60704;SDS011;46545;38.014;-7.874;2022-07-11T04:15:57;30.48;;;16.02;;
60704;SDS011;46545;38.014;-7.874;2022-07-11T04:17:58;35.10;;;19.45;;
60704;SDS011;46545;38.014;-7.874;2022-07-11T04:19:58;27.02;;;17.55;;
60704;SDS011;46545;38.014;-7.874;2022-07-11T04:21:59;25.27;;;17.02;;
60704;SDS011;46545;38.014;-7.874;2022-07-11T04:23:59;30.73;;;18.42;;
60704;SDS011;46545;38.014;-7.874;2022-07-11T04:26:01;28.73;;;19.30;;
60704;SDS011;46545;38.014;-7.874;2022-07-11T04:28:01;28.75;;;19.60;;
60704;SDS011;46545;38.014;-7.874;2022-07-11T04:30:02;30.25;;;19.77;;
60704;SDS011;46545;38.014;-7.874;2022-07-11T04:32:03;30.42;;;21.40;;
60704;SDS011;46545;38.014;-7.874;2022-07-11T04:34:03;36.63;;;21.83;;
60704;SDS011;46545;38.014;-7.874;2022-07-11T04:36:04;34.83;;;22.42;;
60704;SDS011;46545;38.014;-7.874;2022-07-11T04:38:05;40.25;;;25.13;;
60704;SDS011;46545;38.014;-7.874;2022-07-11T04:40:05;34.50;;;23.48;;
60704;SDS011;46545;38.014;-7.874;2022-07-11T04:42:06;36.95;;;24.08;;
60704;SDS011;46545;38.014;-7.874;2022-07-11T04:44:09;31.23;;;21.70;;
60704;SDS011;46545;38.014;-7.874;2022-07-11T04:46:10;30.25;;;20.58;;
60704;SDS011;46545;38.014;-7.874;2022-07-11T04:48:10;29.17;;;20.02;;
60704;SDS011;46545;38.014;-7.874;2022-07-11T04:50:11;33.05;;;21.30;;
60704;SDS011;46545;38.014;-7.874;2022-07-11T04:52:12;27.38;;;19.05;;
60704;SDS011;46545;38.014;-7.874;2022-07-11T04:54:12;24.98;;;17.98;;
60704;SDS011;46545;38.014;-7.874;2022-07-11T04:56:13;28.85;;;18.48;;
60704;SDS011;46545;38.014;-7.874;2022-07-11T04:58:13;26.27;;;16.90;;
60704;SDS011;46545;38.014;-7.874;2022-07-11T05:00:14;26.13;;;17.25;;
60704;SDS011;46545;38.014;-7.874;2022-07-11T05:02:15;29.75;;;17.60;;
60704;SDS011;46545;38.014;-7.874;2022-07-11T05:04:17;28.58;;;16.38;;
60704;SDS011;46545;38.014;-7.874;2022-07-11T05:06:18;31.17;;;17.55;;
60704;SDS011;46545;38.014;-7.874;2022-07-11T05:08:18;22.50;;;14.98;;
60704;SDS011;46545;38.014;-7.874;2022-07-11T05:10:19;20.10;;;14.43;;
60704;SDS011;46545;38.014;-7.874;2022-07-11T05:12:20;20.77;;;12.98;;
60704;SDS011;46545;38.014;-7.874;2022-07-11T05:14:20;18.63;;;12.00;;
60704;SDS011;46545;38.014;-7.874;2022-07-11T05:16:21;17.05;;;12.55;;
60704;SDS011;46545;38.014;-7.874;2022-07-11T05:18:21;22.42;;;13.90;;
60704;SDS011;46545;38.014;-7.874;2022-07-11T05:20:22;22.63;;;14.00;;
60704;SDS011;46545;38.014;-7.874;2022-07-11T05:22:22;19.83;;;12.80;;
60704;SDS011;46545;38.014;-7.874;2022-07-11T05:24:23;18.80;;;11.88;;
60704;SDS011;46545;38.014;-7.874;2022-07-11T05:26:23;19.08;;;10.55;;
60704;SDS011;46545;38.014;-7.874;2022-07-11T05:28:24;15.95;;;9.20;;
60704;SDS011;46545;38.014;-7.874;2022-07-11T05:30:24;18.95;;;10.13;;
60704;SDS011;46545;38.014;-7.874;2022-07-11T05:32:25;20.55;;;10.35;;
60704;SDS011;46545;38.014;-7.874;2022-07-11T05:34:26;17.30;;;9.43;;
60704;SDS011;46545;38.014;-7.874;2022-07-11T05:36:26;13.48;;;8.77;;
60704;SDS011;46545;38.014;-7.874;2022-07-11T05:38:27;15.00;;;8.52;;
60704;SDS011;46545;38.014;-7.874;2022-07-11T05:40:27;12.57;;;7.55;;
60704;SDS011;46545;38.014;-7.874;2022-07-11T05:42:28;11.80;;;7.88;;
60704;SDS011;46545;38.014;-7.874;2022-07-11T05:44:29;12.18;;;6.75;;
60704;SDS011;46545;38.014;-7.874;2022-07-11T05:46:29;11.85;;;5.70;;
60704;SDS011;46545;38.014;-7.874;2022-07-11T05:48:30;11.13;;;6.10;;
60704;SDS011;46545;38.014;-7.874;2022-07-11T05:50:30;10.75;;;6.32;;
60704;SDS011;46545;38.014;-7.874;2022-07-11T05:52:31;10.48;;;6.22;;
60704;SDS011;46545;38.014;-7.874;2022-07-11T05:54:32;9.48;;;6.35;;
60704;SDS011;46545;38.014;-7.874;2022-07-11T05:56:32;9.77;;;5.78;;
60704;SDS011;46545;38.014;-7.874;2022-07-11T05:58:33;16.00;;;9.48;;
60704;SDS011;46545;38.014;-7.874;2022-07-11T06:00:34;15.05;;;10.57;;
60704;SDS011;46545;38.014;-7.874;2022-07-11T06:02:34;19.50;;;11.55;;
60704;SDS011;46545;38.014;-7.874;2022-07-11T06:04:35;20.90;;;14.02;;
60704;SDS011;46545;38.014;-7.874;2022-07-11T06:06:35;18.27;;;12.70;;
60704;SDS011;46545;38.014;-7.874;2022-07-11T06:08:36;21.08;;;15.25;;
60704;SDS011;46545;38.014;-7.874;2022-07-11T06:10:43;23.55;;;14.13;;
60704;SDS011;46545;38.014;-7.874;2022-07-11T06:12:43;18.73;;;12.13;;
60704;SDS011;46545;38.014;-7.874;2022-07-11T06:14:44;13.45;;;9.13;;
60704;SDS011;46545;38.014;-7.874;2022-07-11T06:16:44;15.90;;;8.82;;
60704;SDS011;46545;38.014;-7.874;2022-07-11T06:18:45;13.35;;;8.27;;
60704;SDS011;46545;38.014;-7.874;2022-07-11T06:20:45;9.73;;;6.85;;
60704;SDS011;46545;38.014;-7.874;2022-07-11T06:22:46;9.85;;;6.45;;
60704;SDS011;46545;38.014;-7.874;2022-07-11T06:24:46;8.93;;;5.43;;
60704;SDS011;46545;38.014;-7.874;2022-07-11T06:26:47;14.63;;;5.22;;
60704;SDS011;46545;38.014;-7.874;2022-07-11T06:28:47;10.02;;;5.75;;
60704;SDS011;46545;38.014;-7.874;2022-07-11T06:30:48;7.43;;;4.50;;
60704;SDS011;46545;38.014;-7.874;2022-07-11T06:32:49;10.10;;;5.75;;
60704;SDS011;46545;38.014;-7.874;2022-07-11T06:34:49;5.38;;;4.68;;
60704;SDS011;46545;38.014;-7.874;2022-07-11T06:36:50;8.68;;;5.00;;
60704;SDS011;46545;38.014;-7.874;2022-07-11T06:38:51;6.50;;;4.45;;
60704;SDS011;46545;38.014;-7.874;2022-07-11T06:40:51;5.47;;;3.88;;
60704;SDS011;46545;38.014;-7.874;2022-07-11T06:42:52;5.03;;;3.30;;
60704;SDS011;46545;38.014;-7.874;2022-07-11T06:44:52;7.43;;;4.90;;
60704;SDS011;46545;38.014;-7.874;2022-07-11T06:46:54;6.72;;;3.47;;
60704;SDS011;46545;38.014;-7.874;2022-07-11T06:48:55;5.80;;;3.92;;
60704;SDS011;46545;38.014;-7.874;2022-07-11T06:50:55;7.63;;;4.43;;
60704;SDS011;46545;38.014;-7.874;2022-07-11T06:52:56;7.32;;;4.63;;
60704;SDS011;46545;38.014;-7.874;2022-07-11T06:54:56;6.78;;;5.30;;
60704;SDS011;46545;38.014;-7.874;2022-07-11T06:56:58;6.45;;;5.72;;
60704;SDS011;46545;38.014;-7.874;2022-07-11T06:58:58;7.88;;;5.65;;
60704;SDS011;46545;38.014;-7.874;2022-07-11T07:00:59;5.78;;;4.32;;
60704;SDS011;46545;38.014;-7.874;2022-07-11T07:03:00;5.93;;;5.32;;
60704;SDS011;46545;38.014;-7.874;2022-07-11T07:05:00;4.82;;;3.90;;
60704;SDS011;46545;38.014;-7.874;2022-07-11T07:07:01;7.05;;;4.00;;
60704;SDS011;46545;38.014;-7.874;2022-07-11T07:09:02;6.38;;;3.97;;
60704;SDS011;46545;38.014;-7.874;2022-07-11T07:11:03;7.57;;;4.55;;
60704;SDS011;46545;38.014;-7.874;2022-07-11T07:13:04;5.93;;;4.00;;
60704;SDS011;46545;38.014;-7.874;2022-07-11T07:15:04;7.05;;;4.45;;
60704;SDS011;46545;38.014;-7.874;2022-07-11T07:17:05;7.00;;;4.38;;
60704;SDS011;46545;38.014;-7.874;2022-07-11T07:19:06;12.50;;;4.00;;
60704;SDS011;46545;38.014;-7.874;2022-07-11T07:21:06;5.88;;;3.33;;
60704;SDS011;46545;38.014;-7.874;2022-07-11T07:23:07;4.53;;;2.90;;
60704;SDS011;46545;38.014;-7.874;2022-07-11T07:25:07;4.05;;;2.60;;
60704;SDS011;46545;38.014;-7.874;2022-07-11T07:27:08;6.35;;;3.47;;
60704;SDS011;46545;38.014;-7.874;2022-07-11T07:29:09;5.03;;;3.05;;
60704;SDS011;46545;38.014;-7.874;2022-07-11T07:31:10;4.07;;;2.80;;
60704;SDS011;46545;38.014;-7.874;2022-07-11T07:33:12;4.70;;;3.00;;
60704;SDS011;46545;38.014;-7.874;2022-07-11T07:35:13;8.07;;;3.30;;
60704;SDS011;46545;38.014;-7.874;2022-07-11T07:37:13;9.43;;;3.22;;
60704;SDS011;46545;38.014;-7.874;2022-07-11T07:39:14;8.45;;;3.85;;
60704;SDS011;46545;38.014;-7.874;2022-07-11T07:41:15;6.90;;;3.80;;
60704;SDS011;46545;38.014;-7.874;2022-07-11T07:43:15;5.53;;;3.30;;
60704;SDS011;46545;38.014;-7.874;2022-07-11T07:45:16;8.00;;;3.25;;
60704;SDS011;46545;38.014;-7.874;2022-07-11T07:47:16;6.88;;;3.17;;
60704;SDS011;46545;38.014;-7.874;2022-07-11T07:49:17;4.28;;;3.25;;
60704;SDS011;46545;38.014;-7.874;2022-07-11T07:51:17;6.50;;;3.28;;
60704;SDS011;46545;38.014;-7.874;2022-07-11T07:53:18;5.80;;;3.03;;
60704;SDS011;46545;38.014;-7.874;2022-07-11T07:55:18;5.93;;;2.72;;
60704;SDS011;46545;38.014;-7.874;2022-07-11T07:57:19;5.15;;;3.03;;
60704;SDS011;46545;38.014;-7.874;2022-07-11T07:59:19;4.25;;;3.55;;
60704;SDS011;46545;38.014;-7.874;2022-07-11T08:01:20;4.38;;;3.63;;
60704;SDS011;46545;38.014;-7.874;2022-07-11T08:03:35;4.13;;;3.30;;
60704;SDS011;46545;38.014;-7.874;2022-07-11T08:05:36;5.57;;;3.60;;
60704;SDS011;46545;38.014;-7.874;2022-07-11T08:07:37;5.20;;;4.03;;
60704;SDS011;46545;38.014;-7.874;2022-07-11T08:09:37;4.95;;;3.65;;
60704;SDS011;46545;38.014;-7.874;2022-07-11T08:11:38;6.20;;;3.53;;
60704;SDS011;46545;38.014;-7.874;2022-07-11T08:13:38;4.32;;;3.28;;
60704;SDS011;46545;38.014;-7.874;2022-07-11T08:15:39;7.70;;;2.88;;
60704;SDS011;46545;38.014;-7.874;2022-07-11T08:17:39;4.75;;;3.05;;
60704;SDS011;46545;38.014;-7.874;2022-07-11T08:19:41;8.98;;;3.50;;
60704;SDS011;46545;38.014;-7.874;2022-07-11T08:21:42;3.17;;;2.75;;
60704;SDS011;46545;38.014;-7.874;2022-07-11T08:23:42;5.45;;;2.72;;
60704;SDS011;46545;38.014;-7.874;2022-07-11T08:25:43;7.32;;;2.67;;
60704;SDS011;46545;38.014;-7.874;2022-07-11T08:27:43;9.55;;;2.67;;
60704;SDS011;46545;38.014;-7.874;2022-07-11T08:29:44;11.07;;;2.97;;
60704;SDS011;46545;38.014;-7.874;2022-07-11T08:31:44;6.18;;;2.25;;
60704;SDS011;46545;38.014;-7.874;2022-07-11T08:33:45;4.53;;;2.50;;
60704;SDS011;46545;38.014;-7.874;2022-07-11T08:35:46;5.25;;;2.03;;
60704;SDS011;46545;38.014;-7.874;2022-07-11T08:37:46;2.78;;;2.10;;
60704;SDS011;46545;38.014;-7.874;2022-07-11T08:39:47;4.57;;;2.38;;
60704;SDS011;46545;38.014;-7.874;2022-07-11T08:41:47;4.70;;;2.22;;
60704;SDS011;46545;38.014;-7.874;2022-07-11T08:43:49;7.45;;;2.28;;
60704;SDS011;46545;38.014;-7.874;2022-07-11T08:45:49;3.08;;;1.90;;
60704;SDS011;46545;38.014;-7.874;2022-07-11T08:47:50;2.67;;;1.60;;
60704;SDS011;46545;38.014;-7.874;2022-07-11T08:49:53;6.57;;;2.08;;
60704;SDS011;46545;38.014;-7.874;2022-07-11T08:51:54;2.08;;;1.83;;
60704;SDS011;46545;38.014;-7.874;2022-07-11T08:53:55;5.82;;;1.80;;
60704;SDS011;46545;38.014;-7.874;2022-07-11T08:55:55;2.13;;;1.42;;
60704;SDS011;46545;38.014;-7.874;2022-07-11T08:57:57;2.75;;;1.65;;
60704;SDS011;46545;38.014;-7.874;2022-07-11T08:59:58;3.20;;;1.42;;
60704;SDS011;46545;38.014;-7.874;2022-07-11T09:02:01;1.93;;;1.47;;
60704;SDS011;46545;38.014;-7.874;2022-07-11T09:04:03;2.97;;;1.45;;
60704;SDS011;46545;38.014;-7.874;2022-07-11T09:06:07;2.17;;;1.23;;
60704;SDS011;46545;38.014;-7.874;2022-07-11T09:08:07;4.13;;;1.17;;
60704;SDS011;46545;38.014;-7.874;2022-07-11T09:10:08;5.68;;;1.67;;
60704;SDS011;46545;38.014;-7.874;2022-07-11T09:12:12;5.00;;;1.20;;
60704;SDS011;46545;38.014;-7.874;2022-07-11T09:16:25;1.90;;;1.30;;
60704;SDS011;46545;38.014;-7.874;2022-07-11T09:18:30;2.63;;;1.40;;
60704;SDS011;46545;38.014;-7.874;2022-07-11T09:20:51;3.83;;;1.40;;
60704;SDS011;46545;38.014;-7.874;2022-07-11T09:23:19;1.35;;;1.08;;
60704;SDS011;46545;38.014;-7.874;2022-07-11T09:25:42;2.05;;;1.85;;
60704;SDS011;46545;38.014;-7.874;2022-07-11T09:29:49;3.05;;;1.60;;
60704;SDS011;46545;38.014;-7.874;2022-07-11T09:31:49;4.65;;;1.60;;
60704;SDS011;46545;38.014;-7.874;2022-07-11T09:35:59;2.55;;;1.60;;
60704;SDS011;46545;38.014;-7.874;2022-07-11T09:38:07;2.22;;;1.25;;
60704;SDS011;46545;38.014;-7.874;2022-07-11T09:40:11;1.70;;;1.42;;
60704;SDS011;46545;38.014;-7.874;2022-07-11T09:42:12;3.55;;;1.65;;
60704;SDS011;46545;38.014;-7.874;2022-07-11T09:44:20;2.80;;;1.55;;
60704;SDS011;46545;38.014;-7.874;2022-07-11T09:46:24;3.40;;;1.70;;
60704;SDS011;46545;38.014;-7.874;2022-07-11T09:48:24;2.92;;;1.73;;
60704;SDS011;46545;38.014;-7.874;2022-07-11T09:50:29;3.25;;;1.60;;
60704;SDS011;46545;38.014;-7.874;2022-07-11T09:52:30;1.38;;;1.27;;
60704;SDS011;46545;38.014;-7.874;2022-07-11T09:54:30;1.98;;;1.48;;
60704;SDS011;46545;38.014;-7.874;2022-07-11T09:56:43;3.28;;;1.60;;
60704;SDS011;46545;38.014;-7.874;2022-07-11T09:58:45;2.83;;;1.40;;
60704;SDS011;46545;38.014;-7.874;2022-07-11T10:00:50;6.50;;;1.60;;
60704;SDS011;46545;38.014;-7.874;2022-07-11T10:02:52;1.85;;;1.45;;
60704;SDS011;46545;38.014;-7.874;2022-07-11T10:04:53;2.33;;;1.77;;
60704;SDS011;46545;38.014;-7.874;2022-07-11T10:06:54;8.57;;;1.80;;
60704;SDS011;46545;38.014;-7.874;2022-07-11T10:08:55;3.13;;;1.50;;
60704;SDS011;46545;38.014;-7.874;2022-07-11T10:10:56;1.63;;;1.52;;
60704;SDS011;46545;38.014;-7.874;2022-07-11T10:12:56;10.73;;;1.73;;
60704;SDS011;46545;38.014;-7.874;2022-07-11T10:14:58;3.53;;;1.63;;
60704;SDS011;46545;38.014;-7.874;2022-07-11T10:17:05;7.40;;;2.00;;
60704;SDS011;46545;38.014;-7.874;2022-07-11T10:21:15;4.00;;;1.77;;
60704;SDS011;46545;38.014;-7.874;2022-07-11T10:25:35;2.85;;;1.70;;
60704;SDS011;46545;38.014;-7.874;2022-07-11T10:29:56;5.25;;;1.70;;
60704;SDS011;46545;38.014;-7.874;2022-07-11T10:32:07;3.28;;;1.73;;
60704;SDS011;46545;38.014;-7.874;2022-07-11T10:34:08;3.17;;;1.80;;
60704;SDS011;46545;38.014;-7.874;2022-07-11T10:36:25;1.58;;;1.35;;
60704;SDS011;46545;38.014;-7.874;2022-07-11T10:38:26;4.43;;;2.28;;
60704;SDS011;46545;38.014;-7.874;2022-07-11T10:41:00;3.60;;;1.50;;
60704;SDS011;46545;38.014;-7.874;2022-07-11T10:42:53;1.80;;;1.70;;
60704;SDS011;46545;38.014;-7.874;2022-07-11T10:44:54;3.53;;;1.75;;
60704;SDS011;46545;38.014;-7.874;2022-07-11T10:46:55;2.40;;;1.77;;
60704;SDS011;46545;38.014;-7.874;2022-07-11T10:53:08;4.47;;;1.48;;
60704;SDS011;46545;38.014;-7.874;2022-07-11T10:55:21;2.88;;;1.60;;
60704;SDS011;46545;38.014;-7.874;2022-07-11T10:57:28;1.60;;;1.50;;
60704;SDS011;46545;38.014;-7.874;2022-07-11T10:59:30;3.63;;;1.70;;
60704;SDS011;46545;38.014;-7.874;2022-07-11T11:01:31;3.28;;;1.60;;
60704;SDS011;46545;38.014;-7.874;2022-07-11T11:03:32;5.18;;;1.58;;
60704;SDS011;46545;38.014;-7.874;2022-07-11T11:05:48;3.47;;;1.77;;
60704;SDS011;46545;38.014;-7.874;2022-07-11T11:07:49;3.50;;;1.90;;
60704;SDS011;46545;38.014;-7.874;2022-07-11T11:09:50;6.43;;;2.53;;
60704;SDS011;46545;38.014;-7.874;2022-07-11T11:11:50;2.13;;;1.70;;
60704;SDS011;46545;38.014;-7.874;2022-07-11T11:16:20;5.68;;;1.63;;
60704;SDS011;46545;38.014;-7.874;2022-07-11T11:20:31;2.85;;;1.70;;
60704;SDS011;46545;38.014;-7.874;2022-07-11T11:22:32;5.65;;;2.10;;
60704;SDS011;46545;38.014;-7.874;2022-07-11T11:24:34;6.05;;;2.10;;
60704;SDS011;46545;38.014;-7.874;2022-07-11T11:27:10;6.80;;;2.05;;
60704;SDS011;46545;38.014;-7.874;2022-07-11T11:29:05;5.97;;;1.70;;
60704;SDS011;46545;38.014;-7.874;2022-07-11T11:31:06;4.25;;;2.25;;
60704;SDS011;46545;38.014;-7.874;2022-07-11T11:33:16;6.50;;;1.80;;
60704;SDS011;46545;38.014;-7.874;2022-07-11T11:35:16;6.35;;;1.83;;
60704;SDS011;46545;38.014;-7.874;2022-07-11T11:37:17;5.88;;;2.10;;
60704;SDS011;46545;38.014;-7.874;2022-07-11T11:39:22;9.25;;;3.03;;
60704;SDS011;46545;38.014;-7.874;2022-07-11T11:41:23;4.57;;;3.30;;
60704;SDS011;46545;38.014;-7.874;2022-07-11T11:43:24;6.28;;;2.83;;
60704;SDS011;46545;38.014;-7.874;2022-07-11T11:45:25;4.97;;;1.92;;
60704;SDS011;46545;38.014;-7.874;2022-07-11T11:47:25;5.57;;;2.40;;
60704;SDS011;46545;38.014;-7.874;2022-07-11T11:49:28;3.40;;;1.88;;
60704;SDS011;46545;38.014;-7.874;2022-07-11T11:51:40;4.93;;;2.53;;
60704;SDS011;46545;38.014;-7.874;2022-07-11T11:53:46;4.15;;;2.78;;
60704;SDS011;46545;38.014;-7.874;2022-07-11T11:55:47;7.03;;;3.40;;
60704;SDS011;46545;38.014;-7.874;2022-07-11T11:57:48;9.20;;;3.90;;
60704;SDS011;46545;38.014;-7.874;2022-07-11T11:59:48;5.97;;;2.85;;
60704;SDS011;46545;38.014;-7.874;2022-07-11T12:01:50;3.42;;;2.35;;
60704;SDS011;46545;38.014;-7.874;2022-07-11T12:03:52;3.85;;;2.33;;
60704;SDS011;46545;38.014;-7.874;2022-07-11T12:05:56;2.92;;;2.22;;
60704;SDS011;46545;38.014;-7.874;2022-07-11T12:07:57;4.47;;;3.35;;
60704;SDS011;46545;38.014;-7.874;2022-07-11T12:09:58;3.67;;;2.20;;
60704;SDS011;46545;38.014;-7.874;2022-07-11T12:12:01;6.38;;;2.78;;
60704;SDS011;46545;38.014;-7.874;2022-07-11T12:14:20;2.88;;;2.30;;
60704;SDS011;46545;38.014;-7.874;2022-07-11T12:16:21;4.80;;;3.03;;
60704;SDS011;46545;38.014;-7.874;2022-07-11T12:18:39;4.03;;;3.08;;